createdAt,value
2018-05-01T06:57:42.166Z,12.57
2018-05-01T07:00:14.599Z,12.59
2018-05-01T07:02:47.142Z,12.61
2018-05-01T07:05:19.551Z,12.61
2018-05-01T07:07:52.205Z,12.52
2018-05-01T07:10:24.882Z,12.55
2018-05-01T07:12:57.613Z,12.51
2018-05-01T07:15:30.297Z,12.58
2018-05-01T07:18:03.061Z,12.59
2018-05-01T07:20:35.775Z,12.54
2018-05-01T07:23:09.336Z,12.57
2018-05-01T07:25:42.017Z,12.61
2018-05-01T07:28:14.897Z,12.67
2018-05-01T07:30:47.619Z,12.78
2018-05-01T07:33:21.153Z,12.72
2018-05-01T07:35:53.874Z,12.72
2018-05-01T07:38:26.696Z,12.84
2018-05-01T07:40:59.421Z,12.97
2018-05-01T07:43:32.253Z,13.10
2018-05-01T07:46:06.085Z,13.04
2018-05-01T07:48:39.046Z,12.88
2018-05-01T07:51:11.711Z,12.92
2018-05-01T07:53:45.146Z,12.99
2018-05-01T07:56:17.758Z,12.99
2018-05-01T07:58:50.420Z,12.89
2018-05-01T08:01:23.708Z,12.88
2018-05-01T08:03:56.186Z,12.90
2018-05-01T08:06:29.431Z,12.99
2018-05-01T08:09:01.972Z,13.15
2018-05-01T08:11:34.456Z,13.14
2018-05-01T08:14:06.953Z,13.13
2018-05-01T08:16:39.419Z,13.08
2018-05-01T08:19:11.907Z,13.18
2018-05-01T08:21:44.373Z,13.15
2018-05-01T08:24:16.857Z,13.24
2018-05-01T08:26:49.317Z,13.38
2018-05-01T08:29:21.797Z,13.32
2018-05-01T08:31:54.255Z,13.41
2018-05-01T08:34:26.736Z,13.54
2018-05-01T08:36:59.207Z,13.60
2018-05-01T08:39:31.699Z,13.62
2018-05-01T08:42:04.156Z,13.63
2018-05-01T08:44:36.648Z,13.72
2018-05-01T08:47:09.120Z,13.81
2018-05-01T08:49:41.603Z,13.44
2018-05-01T08:52:14.848Z,13.60
2018-05-01T08:54:48.104Z,13.46
2018-05-01T08:57:20.626Z,13.42
2018-05-01T08:59:53.053Z,13.46
2018-05-01T09:02:25.517Z,13.52
2018-05-01T09:04:57.999Z,13.51
2018-05-01T09:07:30.473Z,13.64
2018-05-01T09:10:02.956Z,13.44
2018-05-01T09:12:35.592Z,13.57
2018-05-01T09:15:08.053Z,13.48
2018-05-01T09:17:40.576Z,13.40
2018-05-01T09:20:13.007Z,13.38
2018-05-01T09:22:45.500Z,13.30
2018-05-01T09:25:17.968Z,13.22
2018-05-01T09:27:50.444Z,13.18
2018-05-01T09:30:22.931Z,13.24
2018-05-01T09:32:55.445Z,13.24
2018-05-01T09:35:27.957Z,13.19
2018-05-01T09:38:00.477Z,13.22
2018-05-01T09:40:32.972Z,13.28
2018-05-01T09:43:05.515Z,13.35
2018-05-01T09:45:37.993Z,13.25
2018-05-01T09:48:10.524Z,13.31
2018-05-01T09:50:42.988Z,13.40
2018-05-01T09:53:16.346Z,13.39
2018-05-01T09:55:50.335Z,13.36
2018-05-01T09:58:23.614Z,13.27
2018-05-01T10:00:56.875Z,13.13
2018-05-01T10:03:30.147Z,13.29
2018-05-01T10:06:03.395Z,13.32
2018-05-01T10:08:36.675Z,13.23
2018-05-01T10:11:09.937Z,13.30
2018-05-01T10:13:43.208Z,13.45
2018-05-01T10:16:16.467Z,13.45
2018-05-01T10:18:50.505Z,13.47
2018-05-01T10:21:23.773Z,13.37
2018-05-01T10:23:57.080Z,13.40
2018-05-01T10:26:30.914Z,13.44
2018-05-01T10:29:04.309Z,13.35
2018-05-01T10:31:37.559Z,13.42
2018-05-01T10:34:11.329Z,13.46
2018-05-01T10:36:45.544Z,13.50
2018-05-01T10:39:18.860Z,13.46
2018-05-01T10:41:52.100Z,13.41
2018-05-01T10:44:25.388Z,13.43
2018-05-01T10:46:58.636Z,13.48
2018-05-01T10:49:31.946Z,13.44
2018-05-01T10:52:05.980Z,13.51
2018-05-01T10:54:39.323Z,13.46
2018-05-01T10:57:12.516Z,13.46
2018-05-01T10:59:45.784Z,13.54
2018-05-01T11:02:19.054Z,13.54
2018-05-01T11:04:52.445Z,13.46
2018-05-01T11:07:26.462Z,13.62
2018-05-01T11:09:59.736Z,13.80
2018-05-01T11:12:33.775Z,13.87
2018-05-01T11:15:07.048Z,14.05
2018-05-01T11:17:41.066Z,14.23
2018-05-01T11:20:14.349Z,14.22
2018-05-01T11:22:47.600Z,14.21
2018-05-01T11:25:20.875Z,14.24
2018-05-01T11:27:54.121Z,14.28
2018-05-01T11:30:28.175Z,14.27
2018-05-01T11:33:01.426Z,14.09
2018-05-01T11:35:35.473Z,14.33
2018-05-01T11:38:08.735Z,14.44
2018-05-01T11:40:42.773Z,14.61
2018-05-01T11:43:16.030Z,14.59
2018-05-01T11:45:49.374Z,14.65
2018-05-01T11:48:22.558Z,14.67
2018-05-01T11:50:55.827Z,14.84
2018-05-01T11:53:29.848Z,14.80
2018-05-01T11:56:03.119Z,14.93
2018-05-01T11:58:36.371Z,15.20
2018-05-01T12:01:09.670Z,15.36
2018-05-01T12:03:43.024Z,15.62
2018-05-01T12:06:17.060Z,16.02
2018-05-01T12:08:50.322Z,16.03
2018-05-01T12:11:24.358Z,16.16
2018-05-01T12:13:57.652Z,16.12
2018-05-01T12:16:31.057Z,16.25
2018-05-01T12:19:04.320Z,16.37
2018-05-01T12:21:38.360Z,16.25
2018-05-01T12:24:11.635Z,16.15
2018-05-01T12:26:44.895Z,16.07
2018-05-01T12:29:18.189Z,16.01
2018-05-01T12:31:51.635Z,16.24
2018-05-01T12:34:24.918Z,16.55
2018-05-01T12:36:59.028Z,16.70
2018-05-01T12:39:32.204Z,16.68
2018-05-01T12:42:05.460Z,16.68
2018-05-01T12:44:38.730Z,16.89
2018-05-01T12:47:11.986Z,17.10
2018-05-01T12:49:45.260Z,17.22
2018-05-01T12:52:18.528Z,17.10
2018-05-01T12:54:51.836Z,17.09
2018-05-01T12:57:25.094Z,17.21
2018-05-01T12:59:58.361Z,17.17
2018-05-01T13:02:32.393Z,16.96
2018-05-01T13:05:06.482Z,16.93
2018-05-01T13:07:39.675Z,17.07
2018-05-01T13:10:12.956Z,17.17
2018-05-01T13:12:46.212Z,17.41
2018-05-01T13:15:19.484Z,17.74
2018-05-01T13:17:52.747Z,17.86
2018-05-01T13:20:26.028Z,17.71
2018-05-01T13:22:59.294Z,17.79
2018-05-01T13:25:32.567Z,18.10
2018-05-01T13:28:05.828Z,18.57
2018-05-01T13:30:39.882Z,18.43
2018-05-01T13:33:13.127Z,18.40
2018-05-01T13:35:47.169Z,18.21
2018-05-01T13:38:20.466Z,17.88
2018-05-01T13:40:53.736Z,18.18
2018-05-01T13:43:27.757Z,18.40
2018-05-01T13:46:01.036Z,18.66
2018-05-01T13:48:34.293Z,18.58
2018-05-01T13:51:07.564Z,18.64
2018-05-01T13:53:40.828Z,18.99
2018-05-01T13:56:14.860Z,19.50
2018-05-01T13:58:48.116Z,19.47
2018-05-01T14:01:21.393Z,19.63
2018-05-01T14:03:54.656Z,19.30
2018-05-01T14:06:27.986Z,18.82
2018-05-01T14:09:01.177Z,18.61
2018-05-01T14:11:34.460Z,18.24
2018-05-01T14:14:08.524Z,18.31
2018-05-01T14:16:41.788Z,18.68
2018-05-01T14:19:15.100Z,19.08
2018-05-01T14:21:48.317Z,19.10
2018-05-01T14:24:21.591Z,19.14
2018-05-01T14:26:55.615Z,19.20
2018-05-01T14:29:28.887Z,19.94
2018-05-01T14:32:02.903Z,20.67
2018-05-01T14:34:36.940Z,20.75
2018-05-01T14:37:10.199Z,21.08
2018-05-01T14:39:43.468Z,21.79
2018-05-01T14:42:16.724Z,22.01
2018-05-01T14:44:49.996Z,21.87
2018-05-01T14:47:24.017Z,21.90
2018-05-01T14:49:57.283Z,22.31
2018-05-01T14:52:31.308Z,21.89
2018-05-01T14:55:05.367Z,21.65
2018-05-01T14:57:38.603Z,21.35
2018-05-01T15:00:12.649Z,20.68
2018-05-01T15:05:46.152Z,20.54
2018-05-01T15:08:20.209Z,20.53
2018-05-01T15:10:53.468Z,20.04
2018-05-01T15:13:26.767Z,19.65
2018-05-01T15:16:00.016Z,19.10
2018-05-01T15:18:33.553Z,19.08
2018-05-01T15:21:06.808Z,19.24
2018-05-01T15:23:40.085Z,19.36
2018-05-01T15:26:13.341Z,19.07
2018-05-01T15:28:46.607Z,18.94
2018-05-01T15:31:20.711Z,18.97
2018-05-01T15:33:54.685Z,19.38
2018-05-01T15:36:27.939Z,19.55
2018-05-01T15:39:01.328Z,19.20
2018-05-01T15:41:35.346Z,19.20
2018-05-01T15:44:08.627Z,19.27
2018-05-01T15:46:42.637Z,19.35
2018-05-01T15:49:16.684Z,19.46
2018-05-01T15:51:49.930Z,19.40
2018-05-01T15:54:23.224Z,18.97
2018-05-01T15:56:56.486Z,18.55
2018-05-01T15:59:29.754Z,18.33
2018-05-01T16:02:03.006Z,18.48
2018-05-01T16:04:36.279Z,18.47
2018-05-01T16:07:09.536Z,18.43
2018-05-01T16:09:42.836Z,18.35
2018-05-01T16:12:16.079Z,18.41
2018-05-01T16:14:49.357Z,18.44
2018-05-01T16:17:22.608Z,18.16
2018-05-01T16:19:55.892Z,18.07
2018-05-01T16:22:29.145Z,17.93
2018-05-01T16:25:02.432Z,17.89
2018-05-01T16:27:35.692Z,17.70
2018-05-01T16:30:09.029Z,17.63
2018-05-01T16:32:43.061Z,17.67
2018-05-01T16:35:16.344Z,17.60
2018-05-01T16:37:49.604Z,17.62
2018-05-01T16:40:22.890Z,17.72
2018-05-01T16:42:56.147Z,17.71
2018-05-01T16:45:30.195Z,17.61
2018-05-01T16:48:03.440Z,17.74
2018-05-01T16:50:36.739Z,17.76
2018-05-01T16:53:10.052Z,17.57
2018-05-01T16:55:44.096Z,17.41
2018-05-01T16:58:17.347Z,17.27
2018-05-01T17:00:51.412Z,17.09
2018-05-01T17:03:24.679Z,17.10
2018-05-01T17:05:57.948Z,17.16
2018-05-01T17:08:31.968Z,17.16
2018-05-01T17:11:05.251Z,17.23
2018-05-01T17:13:38.511Z,17.18
2018-05-01T17:16:11.784Z,17.23
2018-05-01T17:18:45.041Z,17.22
2018-05-01T17:21:18.340Z,17.23
2018-05-01T17:23:51.610Z,17.33
2018-05-01T17:26:25.656Z,17.45
2018-05-01T17:28:58.907Z,17.41
2018-05-01T17:31:32.183Z,17.39
2018-05-01T17:34:05.435Z,17.39
2018-05-01T17:36:38.709Z,17.37
2018-05-01T17:39:12.727Z,17.41
2018-05-01T17:41:46.768Z,17.31
2018-05-01T17:44:20.026Z,17.23
2018-05-01T17:46:53.302Z,17.30
2018-05-01T17:49:26.555Z,17.28
2018-05-01T17:51:59.831Z,17.19
2018-05-01T17:54:33.084Z,17.18
2018-05-01T17:57:06.375Z,17.19
2018-05-01T17:59:39.640Z,17.11
2018-05-01T18:02:13.029Z,16.98
2018-05-01T18:04:46.410Z,17.01
2018-05-01T18:07:19.685Z,17.09
2018-05-01T18:09:53.708Z,17.12
2018-05-01T18:12:26.988Z,17.01
2018-05-01T18:15:01.001Z,16.83
2018-05-01T18:17:34.282Z,16.69
2018-05-01T18:20:08.312Z,16.61
2018-05-01T18:22:41.620Z,16.45
2018-05-01T18:25:14.876Z,16.48
2018-05-01T18:27:48.917Z,16.42
2018-05-01T18:30:22.182Z,16.42
2018-05-01T18:32:55.468Z,16.37
2018-05-01T18:35:28.718Z,16.36
2018-05-01T18:38:01.995Z,16.42
2018-05-01T18:40:35.256Z,16.43
2018-05-01T18:43:08.536Z,16.45
2018-05-01T18:45:41.800Z,16.33
2018-05-01T18:48:15.079Z,16.27
2018-05-01T18:50:48.347Z,16.16
2018-05-01T18:53:21.852Z,16.14
2018-05-01T18:55:55.135Z,16.13
2018-05-01T18:58:28.451Z,16.10
2018-05-01T19:01:01.983Z,16.11
2018-05-01T19:03:35.297Z,16.03
2018-05-01T19:06:08.576Z,15.85
2018-05-01T19:08:41.872Z,15.70
2018-05-01T19:11:15.130Z,15.75
2018-05-01T19:13:48.430Z,15.74
2018-05-01T19:16:21.713Z,15.68
2018-05-01T19:18:54.997Z,15.66
2018-05-01T19:21:28.262Z,15.64
2018-05-01T19:24:01.532Z,15.67
2018-05-01T19:26:34.789Z,15.72
2018-05-01T19:29:08.073Z,15.66
2018-05-01T19:31:41.340Z,15.66
2018-05-01T19:34:14.635Z,15.61
2018-05-01T19:36:47.896Z,15.44
2018-05-01T19:39:21.277Z,15.35
2018-05-01T19:41:54.533Z,15.32
2018-05-01T19:44:27.824Z,15.26
2018-05-01T19:47:01.852Z,15.19
2018-05-01T19:49:35.215Z,15.21
2018-05-01T19:52:08.478Z,15.13
2018-05-01T19:54:43.170Z,15.01
2018-05-01T19:57:16.443Z,14.93
2018-05-01T19:59:50.504Z,14.85
2018-05-01T20:02:23.764Z,14.75
2018-05-01T20:04:57.049Z,14.73
2018-05-01T20:07:31.063Z,14.69
2018-05-01T20:10:04.356Z,14.68
2018-05-01T20:12:37.612Z,14.67
2018-05-01T20:15:10.991Z,14.66
2018-05-01T20:17:44.265Z,14.63
2018-05-01T20:20:17.869Z,14.68
2018-05-01T20:22:51.129Z,14.71
2018-05-01T20:25:24.397Z,14.74
2018-05-01T20:27:57.660Z,14.72
2018-05-01T20:30:30.929Z,14.74
2018-05-01T20:33:04.950Z,14.76
2018-05-01T20:35:38.232Z,14.73
2018-05-01T20:38:11.484Z,14.72
2018-05-01T20:40:44.771Z,14.70
2018-05-01T20:43:18.024Z,14.67
2018-05-01T20:45:51.302Z,14.64
2018-05-01T20:48:24.559Z,14.57
2018-05-01T20:50:57.823Z,14.59
2018-05-01T20:53:31.086Z,14.60
2018-05-01T20:56:04.375Z,14.61
2018-05-01T20:58:37.621Z,14.64
2018-05-01T21:01:10.898Z,14.66
2018-05-01T21:03:44.386Z,14.63
2018-05-01T21:06:17.835Z,14.63
2018-05-01T21:08:51.262Z,14.60
2018-05-01T21:11:24.561Z,14.59
2018-05-01T21:13:57.828Z,14.56
2018-05-01T21:16:31.103Z,14.54
2018-05-01T21:19:04.364Z,14.54
2018-05-01T21:21:37.648Z,14.51
2018-05-01T21:24:10.903Z,14.44
2018-05-01T21:26:44.176Z,14.38
2018-05-01T21:29:17.424Z,14.36
2018-05-01T21:31:50.703Z,14.29
2018-05-01T21:34:24.834Z,14.23
2018-05-01T21:36:58.241Z,14.20
2018-05-01T21:39:31.592Z,14.19
2018-05-01T21:42:05.775Z,14.07
2018-05-01T21:44:39.127Z,14.06
2018-05-01T21:47:12.413Z,13.97
2018-05-01T21:49:46.442Z,13.92
2018-05-01T21:52:19.715Z,13.91
2018-05-01T21:54:53.732Z,13.91
2018-05-01T21:57:27.020Z,13.90
2018-05-01T22:00:01.046Z,13.88
2018-05-01T22:02:35.087Z,13.87
2018-05-01T22:05:08.339Z,13.87
2018-05-01T22:07:42.376Z,13.82
2018-05-01T22:10:15.643Z,13.80
2018-05-01T22:12:49.672Z,13.77
2018-05-01T22:15:23.696Z,13.72
2018-05-01T22:18:10.937Z,13.68
2018-05-01T22:20:44.207Z,13.68
2018-05-01T22:23:17.486Z,13.70
2018-05-01T22:25:51.508Z,13.66
2018-05-01T22:28:24.781Z,13.66
2018-05-01T22:30:58.823Z,13.67
2018-05-01T22:33:32.098Z,13.61
2018-05-01T22:36:06.140Z,13.60
2018-05-01T22:38:39.398Z,13.50
2018-05-01T22:41:13.451Z,13.48
2018-05-01T22:43:46.704Z,13.50
2018-05-01T22:46:20.739Z,13.49
2018-05-01T22:48:53.995Z,13.49
2018-05-01T22:51:28.049Z,13.47
2018-05-01T22:54:01.306Z,13.48
2018-05-01T22:56:34.723Z,13.38
2018-05-01T22:59:07.991Z,13.28
2018-05-01T23:01:42.251Z,13.19
2018-05-01T23:04:15.498Z,13.18
2018-05-01T23:06:48.919Z,13.16
2018-05-01T23:09:22.176Z,13.18
2018-05-01T23:11:55.623Z,13.17
2018-05-01T23:14:28.871Z,13.18
